createdAt,value
2022-09-27T00:00:07.030Z,14.4
2022-09-27T00:05:26.483Z,14.4
2022-09-27T00:11:04.927Z,13.2
2022-09-27T00:16:44.065Z,11.9
2022-09-27T00:22:11.165Z,11.9
2022-09-27T00:27:49.652Z,15.6
2022-09-27T00:33:29.234Z,11.9
2022-09-27T00:38:40.847Z,10.7
2022-09-27T00:44:40.589Z,9.6
2022-09-27T00:49:46.188Z,9.6
2022-09-27T00:55:35.035Z,10.7
2022-09-27T01:01:09.896Z,11.9
2022-09-27T01:06:51.768Z,9.6
2022-09-27T01:12:16.054Z,8.4
2022-09-27T01:18:03.831Z,11.9
2022-09-27T01:23:27.783Z,14.4
2022-09-27T01:28:52.382Z,13.2
2022-09-27T01:34:35.222Z,11.9
2022-09-27T01:40:08.018Z,9.6
2022-09-27T01:45:50.183Z,10.7
2022-09-27T01:51:21.179Z,9.6
2022-09-27T01:56:51.834Z,8.4
2022-09-27T02:02:08.957Z,9.6
2022-09-27T02:08:05.219Z,4.8
2022-09-27T02:13:39.583Z,8.4
2022-09-27T02:18:55.681Z,8.4
2022-09-27T02:24:29.458Z,8.4
2022-09-27T02:30:25.904Z,5.9
2022-09-27T02:35:31.880Z,8.4
2022-09-27T02:41:34.222Z,8.4
2022-09-27T02:46:46.486Z,7.2
2022-09-27T02:52:25.846Z,8.4
2022-09-27T02:57:49.406Z,5.9
2022-09-27T03:03:24.199Z,7.2
2022-09-27T03:09:06.018Z,7.2
2022-09-27T03:14:34.399Z,7.2
2022-09-27T03:20:21.396Z,8.4
2022-09-27T03:26:10.782Z,8.4
2022-09-27T03:48:28.601Z,8.4
2022-09-27T03:53:34.035Z,10.7
2022-09-27T04:04:46.749Z,10.7
2022-09-27T04:55:09.961Z,4.8
2022-09-27T05:22:57.542Z,5.9
2022-09-27T05:51:03.132Z,7.2
2022-09-27T05:56:16.081Z,7.2
2022-09-27T06:18:41.213Z,9.6
2022-09-27T06:24:25.191Z,10.7
2022-09-27T06:35:26.491Z,3.6
2022-09-27T06:40:54.010Z,0
2022-09-27T06:46:41.367Z,3.6
2022-09-27T06:52:08.639Z,8.4
2022-09-27T06:57:43.505Z,4.8
2022-09-27T07:03:06.826Z,5.9
2022-09-27T07:08:49.992Z,0
2022-09-27T07:14:19.574Z,0
2022-09-27T07:19:53.864Z,3.6
2022-09-27T07:25:48.720Z,2.4
2022-09-27T07:31:09.154Z,9.6
2022-09-27T07:36:32.823Z,9.6
2022-09-27T07:42:05.453Z,11.9
2022-09-27T07:47:48.892Z,11.9
2022-09-27T07:53:15.319Z,11.9
2022-09-27T08:10:01.911Z,9.6
2022-09-27T08:15:53.281Z,11.9
2022-09-27T08:26:55.547Z,13.2
2022-09-27T08:32:23.211Z,11.9
2022-09-27T08:38:21.763Z,11.9
2022-09-27T08:43:38.515Z,9.6
2022-09-27T08:49:05.851Z,11.9
2022-09-27T08:54:47.829Z,11.9
2022-09-27T09:00:37.399Z,14.4
2022-09-27T09:06:08.227Z,11.9
2022-09-27T09:16:58.162Z,13.2
2022-09-27T09:28:18.228Z,11.9
2022-09-27T09:34:04.136Z,11.9
2022-09-27T09:44:58.778Z,7.2
2022-09-27T09:50:39.246Z,10.7
2022-09-27T09:56:09.686Z,9.6
2022-09-27T10:01:53.365Z,13.2
2022-09-27T10:07:30.005Z,13.2
2022-09-27T10:13:05.394Z,13.2
2022-09-27T10:18:32.132Z,10.7
2022-09-27T10:35:32.823Z,13.2
2022-09-27T10:40:46.510Z,14.4
2022-09-27T10:46:29.683Z,14.4
2022-09-27T11:25:37.200Z,14.4
2022-09-27T11:31:24.586Z,10.7
2022-09-27T11:36:41.671Z,13.2
2022-09-27T11:42:20.682Z,13.2
2022-09-27T11:48:05.451Z,14.4
2022-09-27T11:53:40.046Z,13.2
2022-09-27T11:59:08.751Z,13.2
2022-09-27T12:04:52.817Z,13.2
2022-09-27T12:10:32.588Z,11.9
2022-09-27T12:15:43.655Z,11.9
2022-09-27T12:21:38.585Z,9.6
2022-09-27T12:27:06.931Z,11.9
2022-09-27T12:32:44.189Z,9.6
2022-09-27T12:43:37.175Z,15.6
2022-09-27T12:49:15.360Z,11.9
2022-09-27T12:54:47.998Z,10.7
2022-09-27T13:00:44.032Z,10.7
2022-09-27T13:06:24.046Z,11.9
2022-09-27T13:11:50.264Z,9.6
2022-09-27T13:22:46.195Z,10.7
2022-09-27T13:34:09.151Z,8.4
2022-09-27T13:39:38.176Z,7.2
2022-09-27T13:45:13.203Z,7.2
2022-09-27T13:50:36.438Z,13.2
2022-09-27T13:56:17.587Z,10.7
2022-09-27T14:07:29.848Z,13.2
2022-09-27T14:29:44.870Z,9.6
2022-09-27T14:41:17.905Z,7.2
2022-09-27T14:57:37.220Z,9.6
2022-09-27T15:03:37.610Z,10.7
2022-09-27T15:08:58.446Z,11.9
2022-09-27T15:14:32.412Z,11.9
2022-09-27T15:19:50.643Z,11.9
2022-09-27T15:25:46.294Z,14.4
2022-09-27T15:36:52.579Z,11.9
2022-09-27T15:48:09.481Z,9.6
2022-09-27T15:53:31.307Z,11.9
2022-09-27T15:58:54.478Z,11.9
2022-09-27T16:32:39.854Z,11.9
2022-09-27T16:38:19.452Z,8.4
2022-09-27T16:43:42.688Z,5.9
2022-09-27T16:49:30.092Z,5.9
2022-09-27T16:54:57.734Z,8.4
2022-09-27T17:00:19.980Z,11.9
2022-09-27T17:06:10.391Z,10.7
2022-09-27T17:11:36.376Z,9.6
2022-09-27T17:17:09.619Z,14.4
2022-09-27T17:22:42.931Z,13.2
2022-09-27T17:28:16.262Z,13.2
2022-09-27T17:34:10.764Z,14.4
2022-09-27T17:39:23.629Z,10.7
2022-09-27T17:44:55.771Z,10.7
2022-09-27T17:50:30.103Z,11.9
2022-09-27T17:55:59.649Z,9.6
2022-09-27T18:01:54.850Z,8.4
2022-09-27T18:07:14.787Z,9.6
2022-09-27T18:12:44.292Z,7.2
2022-09-27T18:18:22.182Z,5.9
2022-09-27T18:23:51.845Z,7.2
2022-09-27T18:29:26.681Z,7.2
2022-09-27T18:35:07.359Z,7.2
2022-09-27T18:40:55.995Z,10.7
2022-09-27T18:46:35.341Z,8.4
2022-09-27T18:52:03.895Z,7.2
2022-09-27T19:03:12.449Z,8.4
2022-09-27T19:08:47.436Z,10.7
2022-09-27T19:19:53.825Z,10.7
2022-09-27T19:25:08.806Z,10.7
2022-09-27T19:31:07.272Z,10.7
2022-09-27T19:36:16.551Z,10.7
2022-09-27T19:42:09.857Z,8.4
2022-09-27T19:47:30.688Z,13.2
2022-09-27T19:53:13.386Z,10.7
2022-09-27T19:58:39.910Z,9.6
2022-09-27T20:04:28.619Z,7.2
2022-09-27T20:10:00.538Z,7.2
2022-09-27T20:15:13.276Z,8.4
2022-09-27T20:21:09.139Z,8.4
2022-09-27T20:26:36.344Z,8.4
2022-09-27T20:32:26.537Z,5.9
2022-09-27T20:37:44.858Z,7.2
2022-09-27T20:43:01.875Z,7.2
2022-09-27T20:48:49.651Z,5.9
2022-09-27T20:54:06.156Z,5.9
2022-09-27T20:59:45.716Z,10.7
2022-09-27T21:05:25.361Z,10.7
2022-09-27T21:11:05.539Z,13.2
2022-09-27T21:16:37.649Z,9.6
2022-09-27T21:22:10.550Z,5.9
2022-09-27T21:27:49.231Z,11.9
2022-09-27T21:33:18.798Z,11.9
2022-09-27T21:39:02.163Z,9.6
2022-09-27T21:44:25.544Z,8.4
2022-09-27T21:50:14.017Z,9.6
2022-09-27T21:55:23.705Z,13.2
2022-09-27T22:01:11.880Z,13.2
2022-09-27T22:06:39.298Z,14.4
2022-09-27T22:12:29.059Z,13.2
2022-09-27T22:17:36.856Z,10.7
2022-09-27T22:23:24.349Z,11.9
2022-09-27T22:29:00.426Z,9.6
2022-09-27T22:34:40.675Z,10.7
2022-09-27T22:39:57.512Z,10.7
2022-09-27T22:45:26.493Z,8.4
2022-09-27T22:51:08.279Z,8.4
2022-09-27T22:56:48.911Z,8.4
2022-09-27T23:02:07.340Z,7.2
2022-09-27T23:07:58.604Z,7.2
2022-09-27T23:13:22.654Z,8.4
2022-09-27T23:19:11.076Z,9.6
2022-09-27T23:24:45.927Z,7.2
2022-09-27T23:30:14.090Z,9.6
2022-09-27T23:35:46.448Z,14.4
2022-09-27T23:41:04.345Z,14.4
2022-09-27T23:47:04.822Z,15.6
2022-09-27T23:57:59.106Z,14.4
